Time;durP1;ratioP1;P1;durP2;ratioP2;P2;SDS_P1;SDS_P2;PMS_P1;PMS_P2;Temp;Humidity;BMP_temperature;BMP_pressure;BME280_temperature;BME280_humidity;BME280_pressure;Samples;Min_cycle;Max_cycle;Signal;HPM_P1;HPM_P2
2021/12/17 00:00:19;;;;;;;81.32;33.17;;;;;;;8.95;89.39;103624.03;5092922;28;20051;-69
2021/12/17 00:03:11;;;;;;;79.57;33.72;;;;;;;9.01;89.27;103621.13;5085130;28;20515;-69
2021/12/17 00:05:46;;;;;;;73.50;32.72;;;;;;;8.92;89.46;103614.47;5056681;28;20045;-69
2021/12/17 00:08:13;;;;;;;74.88;33.47;;;;;;;8.83;89.99;103618.41;5056231;28;20404;-69
2021/12/17 00:10:43;;;;;;;77.30;32.80;;;;;;;8.87;89.79;103628.84;5055292;28;20060;-69
2021/12/17 00:13:11;;;;;;;81.13;33.42;;;;;;;8.88;89.96;103628.78;5088754;28;20038;-69
2021/12/17 00:15:40;;;;;;;77.85;32.70;;;;;;;8.91;89.60;103628.63;5072609;28;20044;-70
2021/12/17 00:18:17;;;;;;;80.95;34.30;;;;;;;8.83;89.93;103621.03;5065880;28;20538;-69
2021/12/17 00:40:10;;;;;;;81.72;33.15;;;;;;;8.87;89.84;103626.22;5088387;28;20068;-69
2021/12/17 00:48:35;;;;;;;87.25;36.05;;;;;;;8.91;89.78;103603.94;5163665;27;20519;-67
2021/12/17 00:53:42;;;;;;;82.85;32.53;;;;;;;8.92;89.33;103597.72;5136033;27;20043;-67
2021/12/17 00:56:08;;;;;;;86.28;35.05;;;;;;;8.92;89.54;103595.94;5116581;28;20179;-68
2021/12/17 00:58:36;;;;;;;78.50;32.95;;;;;;;8.93;89.56;103594.13;5095295;28;20043;-68
2021/12/17 01:01:03;;;;;;;79.25;34.13;;;;;;;8.99;89.31;103596.50;5126367;28;20050;-68
2021/12/17 01:03:30;;;;;;;81.53;35.05;;;;;;;8.98;89.46;103589.47;5111934;28;20499;-68
2021/12/17 01:05:57;;;;;;;75.10;33.15;;;;;;;8.89;89.45;103593.44;5128408;27;20124;-68
2021/12/17 01:08:24;;;;;;;75.25;33.08;;;;;;;8.88;89.73;103593.50;5095499;28;20551;-69
2021/12/17 01:10:54;;;;;;;78.80;33.33;;;;;;;8.77;89.81;103592.22;5128639;28;20151;-68
2021/12/17 01:13:42;;;;;;;77.22;32.28;;;;;;;8.76;90.12;103585.22;5128734;28;20114;-68
2021/12/17 01:16:28;;;;;;;73.53;32.33;;;;;;;8.76;90.23;103579.91;5122428;27;20051;-68
2021/12/17 01:19:13;;;;;;;89.75;35.22;;;;;;;8.76;90.22;103574.63;5128139;27;20051;-68
2021/12/17 01:24:45;;;;;;;81.68;34.05;;;;;;;8.75;90.30;103572.03;5075156;27;1209007;-69
2021/12/17 01:36:03;;;;;;;82.72;33.47;;;;;;;8.65;90.45;103577.78;5095791;28;20052;-68
2021/12/17 01:43:53;;;;;;;79.05;34.95;;;;;;;8.77;90.33;103581.66;5114652;27;20384;-69
2021/12/17 01:46:24;;;;;;;84.45;34.75;;;;;;;8.79;90.54;103581.59;5109885;28;20042;-68
2021/12/17 01:49:06;;;;;;;84.70;34.92;;;;;;;8.79;90.38;103582.44;5092217;28;20127;-68
2021/12/17 02:00:15;;;;;;;85.25;34.92;;;;;;;8.85;90.29;103586.56;5109782;27;20189;-69
2021/12/17 02:02:47;;;;;;;83.93;33.88;;;;;;;8.84;90.07;103585.72;5110058;28;20089;-69
2021/12/17 02:05:23;;;;;;;80.38;34.42;;;;;;;8.91;90.23;103593.34;5074622;28;20139;-69
2021/12/17 02:07:53;;;;;;;92.13;35.60;;;;;;;8.92;90.23;103597.72;5091779;28;20078;-68
2021/12/17 02:30:09;;;;;;;81.70;33.42;;;;;;;8.94;89.75;103603.81;5074085;28;20124;-68
2021/12/17 02:32:39;;;;;;;87.03;34.17;;;;;;;8.94;89.50;103594.06;5071311;28;20041;-68
2021/12/17 02:37:54;;;;;;;88.30;34.40;;;;;;;8.96;89.61;103602.78;5069063;28;20044;-69
2021/12/17 02:46:25;;;;;;;76.35;33.47;;;;;;;8.93;89.66;103605.59;5068491;28;20040;-68
2021/12/17 02:48:53;;;;;;;89.75;35.65;;;;;;;8.95;89.79;103597.56;5036963;28;20047;-68
2021/12/17 02:51:22;;;;;;;90.72;35.67;;;;;;;8.96;89.62;103604.59;5088528;28;20044;-68
2021/12/17 02:53:50;;;;;;;88.88;36.70;;;;;;;8.99;89.54;103594.72;5088508;28;20493;-68
2021/12/17 02:56:16;;;;;;;94.10;36.83;;;;;;;8.93;89.89;103599.44;5070389;28;20507;-68
2021/12/17 02:58:45;;;;;;;76.50;32.63;;;;;;;8.85;89.98;103599.81;5064994;28;20079;-69
2021/12/17 03:01:12;;;;;;;86.63;36.13;;;;;;;8.79;90.41;103606.25;5083357;28;20079;-68
2021/12/17 03:03:41;;;;;;;85.40;33.83;;;;;;;8.82;90.28;103592.00;5092833;28;20040;-69
2021/12/17 03:06:08;;;;;;;80.95;32.75;;;;;;;8.81;89.98;103591.16;5105941;28;20050;-69
2021/12/17 03:08:37;;;;;;;86.85;34.65;;;;;;;8.79;90.32;103593.00;5090872;28;20047;-68
2021/12/17 03:11:04;;;;;;;86.72;34.78;;;;;;;8.81;90.19;103592.94;5095697;28;20044;-68
2021/12/17 03:13:33;;;;;;;85.47;33.90;;;;;;;8.81;90.36;103591.16;5078289;28;20405;-68
2021/12/17 03:16:21;;;;;;;91.68;35.38;;;;;;;8.83;90.31;103599.03;5074689;28;20036;-68
2021/12/17 03:19:00;;;;;;;87.93;33.60;;;;;;;8.74;90.27;103592.38;5059708;28;20119;-68
2021/12/17 03:24:18;;;;;;;80.07;33.22;;;;;;;8.74;90.75;103595.00;5059734;28;20044;-67
2021/12/17 03:26:45;;;;;;;90.50;35.30;;;;;;;8.79;90.52;103592.16;5056974;28;20458;-68
2021/12/17 03:29:13;;;;;;;104.20;36.50;;;;;;;8.75;90.54;103595.88;5073290;28;20044;-68
2021/12/17 03:31:45;;;;;;;77.90;33.25;;;;;;;8.76;90.61;103592.31;5073199;28;20049;-70
2021/12/17 03:34:19;;;;;;;81.72;34.67;;;;;;;8.78;90.30;103585.16;5071825;28;20135;-70
2021/12/17 03:36:54;;;;;;;78.50;32.65;;;;;;;8.77;90.58;103584.28;5073289;28;20053;-68
2021/12/17 03:39:25;;;;;;;85.63;34.70;;;;;;;8.72;90.74;103585.44;5057075;28;20119;-68
2021/12/17 03:41:55;;;;;;;81.68;33.45;;;;;;;8.70;90.82;103580.22;5040029;28;20048;-68
2021/12/17 03:44:31;;;;;;;73.85;33.30;;;;;;;8.70;90.78;103582.00;5073296;28;20041;-67
2021/12/17 03:47:10;;;;;;;69.95;32.83;;;;;;;8.71;90.81;103576.63;5130728;27;20428;-67
2021/12/17 03:49:48;;;;;;;82.47;35.42;;;;;;;8.77;90.66;103580.78;5108949;28;20119;-68
2021/12/17 03:52:16;;;;;;;91.70;36.47;;;;;;;8.86;91.20;103583.00;5109406;28;20047;-69
2021/12/17 03:54:45;;;;;;;94.18;36.53;;;;;;;8.91;90.63;103585.41;5105145;28;20511;-68
2021/12/17 03:57:17;;;;;;;92.85;37.33;;;;;;;8.81;91.14;103579.72;5097069;28;20050;-69
2021/12/17 03:59:48;;;;;;;89.05;36.22;;;;;;;8.76;91.16;103593.16;5077224;28;20074;-68
2021/12/17 04:02:18;;;;;;;80.85;34.70;;;;;;;8.67;91.42;103582.16;5075490;28;20050;-69
2021/12/17 04:04:45;;;;;;;87.38;34.92;;;;;;;8.67;91.46;103584.78;5089474;28;20071;-69
2021/12/17 04:07:33;;;;;;;92.95;36.60;;;;;;;8.65;91.72;103584.88;5109591;28;20119;-68
2021/12/17 04:10:21;;;;;;;86.35;36.10;;;;;;;8.73;91.37;103580.09;5107959;28;20039;-68
2021/12/17 04:12:58;;;;;;;98.15;36.67;;;;;;;8.68;91.62;103591.78;5108318;28;20043;-68
2021/12/17 04:15:34;;;;;;;93.20;36.80;;;;;;;8.75;91.32;103580.88;5091548;28;20071;-68
2021/12/17 04:18:07;;;;;;;84.50;35.83;;;;;;;8.79;91.22;103592.16;5109527;28;20040;-68
2021/12/17 04:20:34;;;;;;;149.75;58.22;;;;;;;8.83;91.16;103585.78;5092272;28;20381;-68
2021/12/17 04:23:02;;;;;;;96.20;38.45;;;;;;;8.83;91.13;103583.13;5109386;28;20576;-68
2021/12/17 04:25:29;;;;;;;85.78;36.95;;;;;;;8.84;90.85;103580.41;5107648;28;20039;-68
2021/12/17 04:27:58;;;;;;;92.90;37.53;;;;;;;8.88;90.79;103580.25;5109463;28;20051;-69
2021/12/17 04:30:27;;;;;;;98.68;36.33;;;;;;;8.83;91.04;103580.50;5089668;28;20055;-68
2021/12/17 04:32:56;;;;;;;103.68;39.17;;;;;;;8.80;91.24;103577.97;5108135;28;20602;-68
2021/12/17 04:35:24;;;;;;;96.15;36.78;;;;;;;8.82;91.30;103582.28;5109150;28;20054;-68
2021/12/17 04:37:52;;;;;;;97.82;38.78;;;;;;;8.78;91.65;103585.16;5107680;28;20051;-68
2021/12/17 04:40:22;;;;;;;93.05;34.92;;;;;;;8.73;91.49;103568.63;5102134;28;20601;-68
2021/12/17 04:45:33;;;;;;;85.38;36.22;;;;;;;8.80;91.14;103586.81;5107316;28;20044;-69
2021/12/17 04:59:20;;;;;;;96.50;38.13;;;;;;;8.65;91.43;103587.50;5094089;28;20408;-68
2021/12/17 05:01:49;;;;;;;102.40;37.65;;;;;;;8.60;91.93;103581.56;5056946;28;20613;-68
2021/12/17 05:04:17;;;;;;;96.82;39.28;;;;;;;8.57;91.95;103587.03;5073103;28;20584;-68
2021/12/17 05:06:44;;;;;;;114.75;42.40;;;;;;;8.65;92.13;103596.31;5074533;28;20041;-68
2021/12/17 05:09:24;;;;;;;110.53;39.92;;;;;;;8.70;92.09;103600.53;5081589;28;20039;-68
2021/12/17 05:20:27;;;;;;;124.50;44.65;;;;;;;8.74;92.51;103591.53;5094440;28;20471;-68
2021/12/17 05:22:58;;;;;;;126.13;43.63;;;;;;;8.78;92.09;103595.72;5093642;28;20504;-68
2021/12/17 05:25:26;;;;;;;129.43;47.13;;;;;;;8.82;91.82;103594.66;5093315;28;20048;-69
2021/12/17 05:27:55;;;;;;;129.60;45.08;;;;;;;8.83;91.82;103594.56;5094496;28;20051;-69
2021/12/17 05:30:22;;;;;;;128.38;44.30;;;;;;;8.88;91.86;103590.84;5091428;28;20056;-68
2021/12/17 05:32:50;;;;;;;134.02;45.60;;;;;;;8.92;91.78;103587.16;5094519;28;20132;-68
2021/12/17 05:35:17;;;;;;;126.75;45.60;;;;;;;8.91;91.68;103578.31;5094366;28;20055;-69
2021/12/17 05:37:45;;;;;;;125.55;43.65;;;;;;;8.84;91.69;103593.66;5076556;28;20060;-68
2021/12/17 05:40:12;;;;;;;130.35;42.47;;;;;;;8.82;91.62;103586.69;5093020;28;20052;-70
2021/12/17 05:42:41;;;;;;;129.23;43.72;;;;;;;8.73;92.02;103588.03;5076304;28;20047;-68
2021/12/17 05:45:34;;;;;;;132.38;41.65;;;;;;;8.72;92.20;103585.44;5076775;28;20085;-69
2021/12/17 05:48:04;;;;;;;129.57;40.55;;;;;;;8.77;92.02;103584.28;5094475;28;20051;-69
2021/12/17 05:50:31;;;;;;;131.98;41.80;;;;;;;8.74;91.85;103581.78;5092562;28;20101;-70
2021/12/17 05:52:58;;;;;;;134.13;41.22;;;;;;;8.62;92.27;103583.22;5092601;28;20048;-69
2021/12/17 05:55:26;;;;;;;136.68;44.25;;;;;;;8.57;92.77;103585.22;5091438;28;20550;-69
2021/12/17 05:57:53;;;;;;;138.65;40.90;;;;;;;8.54;92.92;103584.50;5092184;28;20131;-69
2021/12/17 06:00:22;;;;;;;146.95;42.55;;;;;;;8.51;93.26;103584.66;5093492;28;20139;-68
2021/12/17 06:02:51;;;;;;;149.18;41.25;;;;;;;8.61;93.26;103588.59;5093743;28;20101;-69
2021/12/17 06:05:37;;;;;;;137.98;42.22;;;;;;;8.61;93.05;103591.25;5091120;28;20048;-68
2021/12/17 06:08:05;;;;;;;138.27;42.03;;;;;;;8.66;93.10;103591.88;5075552;28;20074;-68
2021/12/17 06:10:32;;;;;;;130.32;40.83;;;;;;;8.59;93.22;103580.72;5071064;28;20040;-69
2021/12/17 06:12:59;;;;;;;132.90;42.53;;;;;;;8.61;92.80;103584.16;5090233;28;20056;-68
2021/12/17 06:15:26;;;;;;;130.48;41.22;;;;;;;8.62;93.09;103587.66;5092528;28;20101;-68
2021/12/17 06:17:54;;;;;;;131.60;42.35;;;;;;;8.63;93.08;103587.56;5092253;28;20044;-68
2021/12/17 06:20:24;;;;;;;131.38;41.10;;;;;;;8.53;93.05;103577.50;5093475;28;20485;-68
2021/12/17 06:22:53;;;;;;;128.00;40.05;;;;;;;8.54;93.64;103584.50;5092479;28;20247;-68
2021/12/17 06:25:20;;;;;;;129.10;40.55;;;;;;;8.58;93.28;103580.78;5091852;28;20043;-68
2021/12/17 06:27:47;;;;;;;123.45;41.30;;;;;;;8.47;93.66;103577.78;5092147;28;20032;-69
2021/12/17 06:30:16;;;;;;;116.35;41.35;;;;;;;8.42;93.51;103576.22;5091768;28;20044;-68
2021/12/17 06:32:44;;;;;;;117.00;41.50;;;;;;;8.34;94.26;103572.19;5091882;28;20147;-68
2021/12/17 06:35:12;;;;;;;108.40;39.10;;;;;;;8.40;94.05;103575.41;5073853;28;20048;-70
2021/12/17 06:37:40;;;;;;;119.07;39.38;;;;;;;8.40;93.98;103583.34;5092882;28;20097;-68
2021/12/17 06:40:12;;;;;;;108.90;39.53;;;;;;;8.41;94.05;103586.84;5076101;28;20044;-68
2021/12/17 06:42:40;;;;;;;110.00;38.08;;;;;;;8.39;94.00;103581.63;5075326;28;20059;-69
2021/12/17 06:45:18;;;;;;;108.20;38.72;;;;;;;8.28;94.53;103578.59;5092107;28;20048;-68
2021/12/17 06:47:53;;;;;;;116.40;39.45;;;;;;;8.28;94.48;103568.03;5092744;28;20085;-67
2021/12/17 07:06:32;;;;;;;124.63;38.55;;;;;;;8.35;94.27;103589.75;5091113;28;20040;-68
2021/12/17 07:09:30;;;;;;;126.45;37.67;;;;;;;8.31;94.66;103588.16;5090445;28;20173;-68
2021/12/17 07:17:08;;;;;;;132.05;38.95;;;;;;;8.36;94.35;103586.19;5092143;28;20105;-68
2021/12/17 07:17:25;;;;;;;128.10;39.35;;;;;;;8.25;94.44;103581.38;5091444;28;20085;-68
2021/12/17 07:23:01;;;;;;;122.13;37.50;;;;;;;8.32;94.39;103582.81;5075972;28;20047;-69
2021/12/17 07:32:13;;;;;;;119.70;38.00;;;;;;;8.25;94.47;103581.38;5090100;28;20106;-68
2021/12/17 07:33:37;;;;;;;121.22;37.42;;;;;;;8.21;94.50;103585.94;5099874;28;20048;-70
2021/12/17 07:36:24;;;;;;;115.43;34.60;;;;;;;8.24;94.48;103585.81;5079178;28;20052;-69
2021/12/17 07:38:57;;;;;;;121.53;36.03;;;;;;;8.29;94.73;103585.59;5091129;28;20489;-68
2021/12/17 07:41:45;;;;;;;122.80;34.47;;;;;;;8.24;94.23;103591.09;5070675;28;20083;-67
2021/12/17 07:44:31;;;;;;;117.50;34.60;;;;;;;8.28;94.13;103586.53;5056851;28;20178;-69
2021/12/17 07:47:18;;;;;;;108.85;33.22;;;;;;;8.20;94.40;103594.78;5070297;28;20051;-68
2021/12/17 07:50:05;;;;;;;114.47;33.10;;;;;;;8.14;94.35;103603.00;5070190;28;20130;-69
2021/12/17 07:52:36;;;;;;;128.55;33.05;;;;;;;8.16;94.50;103606.44;5070422;28;20119;-69
2021/12/17 07:55:03;;;;;;;113.30;32.65;;;;;;;8.12;94.71;103594.28;5078313;28;20390;-70
2021/12/17 07:57:30;;;;;;;105.85;33.10;;;;;;;8.11;94.91;103607.56;5087055;28;20126;-69
2021/12/17 07:59:57;;;;;;;127.22;34.15;;;;;;;8.10;94.68;103616.47;5090533;28;20120;-69
2021/12/17 08:02:24;;;;;;;118.07;34.50;;;;;;;8.04;95.06;103617.56;5089715;28;20062;-69
2021/12/17 08:05:04;;;;;;;131.27;33.97;;;;;;;8.15;94.92;103622.38;5085317;28;20036;-68
2021/12/17 08:07:32;;;;;;;116.45;31.33;;;;;;;8.03;95.24;103621.16;5090371;28;20044;-70
2021/12/17 08:09:59;;;;;;;96.38;30.63;;;;;;;8.10;94.19;103627.03;5091869;28;20512;-69
2021/12/17 08:12:26;;;;;;;99.03;29.95;;;;;;;8.17;94.05;103620.53;5091496;28;20695;-68
2021/12/17 08:14:59;;;;;;;89.55;28.77;;;;;;;8.13;94.23;103619.81;5088907;28;20062;-70
2021/12/17 08:25:51;;;;;;;94.30;28.77;;;;;;;8.17;94.43;103626.69;5047605;28;20076;-68
2021/12/17 08:28:19;;;;;;;98.57;29.02;;;;;;;8.13;94.02;103629.53;5031702;28;20072;-69
2021/12/17 08:30:45;;;;;;;108.57;29.85;;;;;;;8.12;94.14;103628.66;5045769;28;20095;-69
2021/12/17 08:33:20;;;;;;;98.53;28.55;;;;;;;8.16;93.72;103632.03;5048308;28;20435;-68
2021/12/17 08:35:49;;;;;;;113.40;31.20;;;;;;;8.11;94.78;103639.31;5048874;28;20060;-69
2021/12/17 08:38:35;;;;;;;96.50;28.23;;;;;;;8.26;93.44;103639.50;5052939;28;20044;-71
2021/12/17 08:41:18;;;;;;;90.00;28.10;;;;;;;8.15;94.23;103640.88;5062396;28;20521;-72
2021/12/17 08:43:46;;;;;;;86.13;26.63;;;;;;;8.17;93.74;103641.69;5066599;28;20417;-71
2021/12/17 08:46:13;;;;;;;100.93;28.38;;;;;;;8.20;93.91;103644.19;5064537;28;20048;-69
2021/12/17 08:49:01;;;;;;;103.32;29.90;;;;;;;8.12;94.14;103655.09;5059622;28;20389;-71
2021/12/17 08:51:36;;;;;;;99.65;29.35;;;;;;;8.18;94.14;103661.91;5063064;28;20037;-70
2021/12/17 08:54:04;;;;;;;108.63;28.63;;;;;;;8.17;94.26;103658.41;5062001;28;20127;-68
2021/12/17 08:56:35;;;;;;;106.72;30.45;;;;;;;8.18;94.47;103653.97;5060348;28;20449;-69
2021/12/17 08:59:05;;;;;;;104.75;29.23;;;;;;;8.09;94.78;103652.59;5042637;28;20676;-70
2021/12/17 09:01:45;;;;;;;102.35;28.98;;;;;;;8.04;94.80;103646.63;5064243;28;20048;-69
2021/12/17 09:04:13;;;;;;;104.22;28.50;;;;;;;8.15;94.89;103656.75;5059919;28;20045;-69
2021/12/17 09:06:45;;;;;;;106.75;28.83;;;;;;;8.12;94.98;103660.41;5049288;28;20409;-69
2021/12/17 09:09:18;;;;;;;93.90;27.52;;;;;;;8.12;94.92;103646.31;5059953;28;20051;-68
2021/12/17 09:11:45;;;;;;;105.53;28.23;;;;;;;8.13;95.02;103661.25;5061880;28;20048;-69
2021/12/17 09:14:22;;;;;;;84.90;27.08;;;;;;;8.13;95.10;103661.25;5035874;28;20053;-69
2021/12/17 09:16:56;;;;;;;101.72;28.20;;;;;;;8.18;95.08;103662.75;5066148;28;20041;-70
2021/12/17 09:19:28;;;;;;;88.32;26.63;;;;;;;8.23;94.75;103670.50;5084298;28;20095;-68
2021/12/17 09:22:00;;;;;;;96.82;27.52;;;;;;;8.19;94.97;103669.78;5058381;28;20170;-69
2021/12/17 09:24:40;;;;;;;89.68;26.10;;;;;;;8.24;94.92;103665.16;5067427;28;20110;-69
2021/12/17 09:27:41;;;;;;;86.82;25.70;;;;;;;8.25;94.89;103666.00;5092342;27;20388;-69
2021/12/17 09:30:18;;;;;;;80.22;26.95;;;;;;;8.31;94.51;103659.59;5051458;28;20036;-69
2021/12/17 09:32:45;;;;;;;83.63;26.38;;;;;;;8.26;94.74;103660.66;5065551;28;20123;-69
2021/12/17 09:35:14;;;;;;;79.97;25.02;;;;;;;8.29;94.62;103666.75;5068041;28;20456;-69
2021/12/17 09:37:41;;;;;;;72.95;25.45;;;;;;;8.33;94.54;103669.19;5074762;28;20091;-69
2021/12/17 09:40:11;;;;;;;73.93;24.55;;;;;;;8.35;94.54;103671.75;5053864;28;20040;-69
2021/12/17 09:42:40;;;;;;;78.65;25.38;;;;;;;8.25;94.62;103672.16;5058304;28;20056;-69
2021/12/17 09:45:08;;;;;;;72.30;24.58;;;;;;;8.23;94.82;103678.44;5067089;28;20049;-67
2021/12/17 09:47:35;;;;;;;72.88;23.98;;;;;;;8.33;94.58;103678.88;5068093;28;20566;-70
2021/12/17 09:50:03;;;;;;;78.55;25.80;;;;;;;8.36;94.11;103687.56;5069678;28;21499;-69
2021/12/17 09:52:30;;;;;;;71.95;24.98;;;;;;;8.40;94.25;103682.97;5058120;28;20472;-67
2021/12/17 09:54:57;;;;;;;75.50;26.08;;;;;;;8.34;94.82;103683.28;5066270;28;20036;-67
2021/12/17 09:57:25;;;;;;;70.72;24.42;;;;;;;8.41;94.23;103680.28;5077167;28;20124;-67
2021/12/17 09:59:53;;;;;;;71.32;24.50;;;;;;;8.41;94.54;103679.44;5061537;28;20044;-67
2021/12/17 10:02:20;;;;;;;80.00;24.80;;;;;;;8.47;94.21;103679.16;5031155;28;20140;-67
2021/12/17 10:04:47;;;;;;;79.72;26.23;;;;;;;8.45;94.13;103673.94;5042495;28;20041;-68
2021/12/17 10:07:24;;;;;;;77.68;25.08;;;;;;;8.42;94.44;103676.75;5062452;28;20429;-68
2021/12/17 10:09:56;;;;;;;67.57;25.00;;;;;;;8.43;94.23;103680.25;5063005;28;20094;-67
2021/12/17 10:12:29;;;;;;;69.93;24.17;;;;;;;8.47;94.14;103670.38;5071264;28;20076;-68
2021/12/17 10:15:10;;;;;;;78.80;25.23;;;;;;;8.48;94.08;103672.97;5064347;28;20045;-68
2021/12/17 10:18:00;;;;;;;72.38;25.48;;;;;;;8.54;94.13;103675.31;5059894;28;20037;-68
2021/12/17 10:20:30;;;;;;;63.10;23.60;;;;;;;8.58;93.79;103671.59;5044944;28;20052;-68
2021/12/17 10:23:00;;;;;;;61.70;21.73;;;;;;;8.65;93.33;103677.50;5054952;28;20037;-67
2021/12/17 10:25:29;;;;;;;61.97;23.40;;;;;;;8.70;93.26;103683.44;5055716;28;20211;-67
2021/12/17 10:27:59;;;;;;;56.15;21.67;;;;;;;8.68;92.77;103685.31;5056458;28;20158;-67
2021/12/17 10:30:27;;;;;;;69.97;24.63;;;;;;;8.76;92.56;103677.00;5076382;28;21634;-67
2021/12/17 10:32:56;;;;;;;67.97;25.42;;;;;;;8.68;93.17;103685.31;5065437;28;20482;-68
2021/12/17 10:35:26;;;;;;;66.68;25.33;;;;;;;8.67;92.93;103682.72;5064707;28;20051;-69
2021/12/17 10:37:57;;;;;;;69.78;24.65;;;;;;;8.61;92.87;103683.84;5063120;28;20410;-68
2021/12/17 10:40:34;;;;;;;65.90;25.42;;;;;;;8.69;92.78;103676.41;5048943;28;20052;-69
2021/12/17 10:43:10;;;;;;;66.28;24.33;;;;;;;8.61;92.61;103678.56;5050052;28;20076;-69
2021/12/17 10:45:44;;;;;;;69.28;24.48;;;;;;;8.67;92.59;103680.06;5046499;28;20053;-69
2021/12/17 10:48:34;;;;;;;66.80;24.27;;;;;;;8.61;92.72;103670.63;5045970;28;20032;-69
2021/12/17 10:53:53;;;;;;;63.38;25.30;;;;;;;8.61;92.81;103662.69;5068435;27;20744;-70
2021/12/17 10:56:25;;;;;;;74.25;26.70;;;;;;;8.56;92.95;103662.88;5056287;28;20091;-70
2021/12/17 10:58:54;;;;;;;71.55;26.13;;;;;;;8.64;92.88;103665.16;5068191;28;20125;-68
2021/12/17 11:01:41;;;;;;;71.00;26.70;;;;;;;8.62;92.60;103665.28;5052444;28;20486;-70
2021/12/17 11:04:12;;;;;;;70.60;25.67;;;;;;;8.65;92.73;103666.91;5049857;28;20062;-70
2021/12/17 11:06:47;;;;;;;76.88;27.67;;;;;;;8.64;92.77;103654.59;5052416;28;20128;-70
2021/12/17 11:09:50;;;;;;;66.05;25.75;;;;;;;8.73;92.69;103663.91;5070093;28;20124;-68
2021/12/17 11:15:24;;;;;;;62.67;24.92;;;;;;;8.67;92.40;103664.19;5129718;27;20379;-67
2021/12/17 11:18:02;;;;;;;66.68;24.17;;;;;;;8.69;92.28;103657.88;5116581;28;20424;-68
2021/12/17 11:20:32;;;;;;;62.10;24.58;;;;;;;8.64;92.66;103665.16;5108312;28;20134;-68
2021/12/17 11:23:05;;;;;;;63.33;25.02;;;;;;;8.57;92.66;103667.25;5113025;28;20035;-68
2021/12/17 11:25:34;;;;;;;61.95;23.85;;;;;;;8.61;92.81;103654.75;5090339;28;20044;-68
2021/12/17 11:28:03;;;;;;;66.15;25.05;;;;;;;8.71;92.41;103663.13;5107904;28;20099;-68
2021/12/17 11:30:36;;;;;;;67.90;25.23;;;;;;;8.62;92.73;103662.63;5102623;28;20085;-68
2021/12/17 11:33:04;;;;;;;66.60;23.90;;;;;;;8.70;92.42;103661.41;5093885;28;20093;-68
2021/12/17 11:35:34;;;;;;;61.03;24.02;;;;;;;8.71;92.62;103665.75;5089298;28;20035;-67
2021/12/17 11:38:06;;;;;;;62.40;22.73;;;;;;;8.70;92.29;103667.56;5112116;27;20048;-68
2021/12/17 11:40:41;;;;;;;59.63;22.67;;;;;;;8.76;92.19;103661.13;5109097;28;20497;-68
2021/12/17 11:43:37;;;;;;;55.97;21.77;;;;;;;8.72;92.14;103663.03;5110723;28;20046;-68
2021/12/17 11:46:12;;;;;;;56.42;22.35;;;;;;;8.67;91.96;103656.25;5107296;28;20044;-68
2021/12/17 11:48:49;;;;;;;60.53;23.05;;;;;;;8.62;92.49;103656.44;5095413;28;20035;-68
2021/12/17 11:51:19;;;;;;;58.53;22.50;;;;;;;8.70;92.16;103664.91;5107414;28;20131;-69
2021/12/17 11:56:41;;;;;;;56.95;22.15;;;;;;;8.71;92.45;103673.69;5124420;27;20749;-69
2021/12/17 12:02:11;;;;;;;54.80;21.40;;;;;;;8.76;92.33;103655.81;5125023;27;20143;-69
2021/12/17 12:04:43;;;;;;;51.35;20.83;;;;;;;8.77;92.31;103657.56;5107203;28;20192;-69
2021/12/17 12:07:16;;;;;;;47.38;20.10;;;;;;;8.80;92.12;103657.38;5074229;28;20382;-68
2021/12/17 12:10:21;;;;;;;52.72;21.25;;;;;;;8.81;91.83;103667.91;5081566;28;20134;-68
2021/12/17 12:18:06;;;;;;;45.50;19.52;;;;;;;8.74;92.44;103655.88;5075217;27;20073;-69
2021/12/17 12:20:51;;;;;;;40.90;18.75;;;;;;;8.75;92.14;103654.97;5076816;28;20044;-70
2021/12/17 12:29:03;;;;;;;47.53;20.15;;;;;;;8.78;92.31;103656.59;5066415;28;20389;-69
2021/12/17 12:34:14;;;;;;;51.85;20.83;;;;;;;8.77;92.35;103649.63;5082542;27;20178;-68
2021/12/17 12:42:30;;;;;;;45.25;20.83;;;;;;;8.78;92.37;103646.88;5125308;27;20386;-69
2021/12/17 12:47:55;;;;;;;50.20;21.38;;;;;;;8.70;91.99;103635.81;4213257;27;25374010;-67
2021/12/17 12:50:27;;;;;;;47.90;21.25;;;;;;;8.69;92.02;103644.66;5061531;28;20048;-69
2021/12/17 12:52:59;;;;;;;50.28;21.45;;;;;;;8.71;92.19;103649.88;5065284;28;20400;-68
2021/12/17 12:55:34;;;;;;;48.53;21.85;;;;;;;8.71;91.50;103653.38;5066057;28;20052;-68
2021/12/17 12:58:08;;;;;;;47.20;21.17;;;;;;;8.77;91.24;103647.81;5085057;28;20044;-68
2021/12/17 13:00:55;;;;;;;48.92;21.02;;;;;;;8.75;91.50;103647.03;5050570;28;21030;-67
2021/12/17 13:03:27;;;;;;;47.50;21.48;;;;;;;8.81;91.55;103643.25;5046712;28;20119;-70
2021/12/17 13:05:56;;;;;;;42.25;20.50;;;;;;;8.79;91.27;103648.59;5080472;28;20592;-67
2021/12/17 13:08:25;;;;;;;45.38;20.88;;;;;;;8.92;90.77;103653.34;5081597;28;20052;-68
2021/12/17 13:10:58;;;;;;;40.53;19.60;;;;;;;8.87;89.78;103657.97;5044824;28;20041;-68
2021/12/17 13:21:19;;;;;;;;;;;;;;;8.82;89.58;103644.94;5078651;28;20373;-68
2021/12/17 13:23:54;;;;;;;41.30;19.25;;;;;;;8.78;89.83;103641.56;5066820;28;19970;-68
2021/12/17 13:26:24;;;;;;;39.38;20.35;;;;;;;8.83;89.30;103647.53;5068242;28;20033;-68
2021/12/17 13:29:01;;;;;;;41.17;18.77;;;;;;;8.83;88.77;103639.59;5083618;28;20405;-68
2021/12/17 13:31:57;;;;;;;41.92;19.75;;;;;;;9.00;88.99;103637.94;5074024;28;20131;-68
2021/12/17 13:34:31;;;;;;;42.47;19.15;;;;;;;8.91;88.55;103636.56;5069535;28;20139;-68
2021/12/17 13:40:03;;;;;;;44.33;19.70;;;;;;;8.88;88.46;103619.97;5134985;27;20342;-69
2021/12/17 13:42:32;;;;;;;39.90;19.83;;;;;;;8.79;88.42;103613.34;5123617;28;20065;-68
2021/12/17 13:45:01;;;;;;;42.92;19.30;;;;;;;8.90;88.40;103616.34;5126372;28;20050;-69
2021/12/17 13:47:32;;;;;;;37.90;18.92;;;;;;;8.94;88.71;103614.41;5104510;28;20047;-70
2021/12/17 13:50:02;;;;;;;;;;;;;;;8.91;89.12;103607.44;5105774;28;20051;-68
2021/12/17 13:52:35;;;;;;;41.15;19.77;;;;;;;8.96;88.51;103608.09;5126701;28;20368;-69
2021/12/17 13:55:06;;;;;;;36.72;18.17;;;;;;;8.97;88.46;103603.66;5102030;28;20097;-68
2021/12/17 13:57:34;;;;;;;38.53;18.58;;;;;;;8.94;87.93;103607.31;5103086;28;20403;-69
2021/12/17 14:00:06;;;;;;;35.90;18.40;;;;;;;8.92;87.58;103605.69;5087907;28;20681;-69
2021/12/17 14:02:42;;;;;;;33.85;16.50;;;;;;;8.88;87.60;103609.38;5122804;28;20187;-69
2021/12/17 14:05:20;;;;;;;31.80;16.98;;;;;;;8.84;87.50;103606.00;5118217;28;20138;-68
2021/12/17 14:07:50;;;;;;;31.50;17.10;;;;;;;8.91;87.56;103618.03;5099174;28;20055;-69
2021/12/17 14:10:21;;;;;;;33.35;17.80;;;;;;;9.06;87.86;103616.47;5126184;27;20035;-70
2021/12/17 14:12:49;;;;;;;31.38;16.35;;;;;;;8.94;87.66;103609.09;5127973;27;20126;-69
2021/12/17 14:15:36;;;;;;;30.98;15.80;;;;;;;8.91;87.24;103609.25;5124238;28;20122;-69
2021/12/17 14:18:06;;;;;;;28.42;15.52;;;;;;;8.96;87.53;103609.88;5126696;27;20638;-68
2021/12/17 14:20:44;;;;;;;32.17;17.60;;;;;;;8.88;87.50;103604.97;5108496;28;20048;-69
2021/12/17 14:23:14;;;;;;;29.33;16.60;;;;;;;8.96;87.47;103613.38;5127374;27;20062;-70
2021/12/17 14:25:44;;;;;;;32.78;16.35;;;;;;;8.99;87.58;103610.59;5121371;27;20648;-69
2021/12/17 14:31:14;;;;;;;29.85;15.93;;;;;;;9.06;86.14;103607.63;5022044;27;1268266;-71
2021/12/17 14:33:49;;;;;;;26.80;15.13;;;;;;;9.05;85.84;103612.09;5046223;28;20044;-70
2021/12/17 14:36:19;;;;;;;32.05;15.85;;;;;;;9.07;86.10;103615.50;5024436;28;20041;-68
2021/12/17 14:38:53;;;;;;;27.42;15.57;;;;;;;9.09;86.37;103618.94;5011980;28;20073;-68
2021/12/17 14:41:33;;;;;;;29.13;15.80;;;;;;;8.99;86.05;103618.53;5028089;28;20041;-68
2021/12/17 14:44:19;;;;;;;25.00;14.35;;;;;;;8.84;86.09;103624.53;5016673;28;20077;-69
2021/12/17 14:46:53;;;;;;;27.15;13.80;;;;;;;8.88;85.46;103635.84;5027529;28;21309;-69
2021/12/17 15:03:23;;;;;;;21.90;12.57;;;;;;;8.83;83.73;103631.63;5023581;28;20124;-69